Agana Heights, GU (96910)

12:59 PM ChST on July 30, 2016 (GMT +1000)
Maite | | Change Station

Elev 140 ft 13.48 °N, 144.76 °E | Updated 0 second ago

Partly Cloudy
Partly Cloudy
89.9 °F
Feels Like 105 °F
N
5.0
Wind Variable Wind from SSE
Gusts 13.0 mph

Today
High -- | Low -- °F
--% Chance of Precip.
Yesterday
High -- | Low -- °F
Precip. -- in
Pressure 29.80 in
Visibility 10.0 miles
Clouds Few 2800 ft
Few 3300 ft
Heat Index 105 °F
Dew Point 78 °F
Humidity 69%
Rainfall in
Snow Depth Not available.
6:05 AM 6:49 PM
Waning Crescent, 17% visible
METAR PGUM 300254Z 11008KT 10SM FEW028 FEW033 32/24 A2982 RMK AO2 SLP089 T03170239 58013
Pressure 29.80 in
Visibility 10.0 miles
Clouds Few 2800 ft
Few 3300 ft
Heat Index 105 °F
Dew Point 78 °F
Humidity 69%
Rainfall in
Snow Depth Not available.
6:05 AM 6:49 PM
Waning Crescent, 17% visible
METAR PGUM 300254Z 11008KT 10SM FEW028 FEW033 32/24 A2982 RMK AO2 SLP089 T03170239 58013

10-Day Weather Forecast

Almanac

Astronomy

Jul. 30, 2016 Rise Set
Actual Time
Civil Twilight
Nautical Twilight
Astronomical Twilight
Moon
Length of Visible Light
Length of Day
Tomorrow will be .
, % of the Moon is Illuminated

Today's Extremes

State Highs State Lows

Community

WunderPhotos

Upload Photos

1,928,491 photos uploaded!

WunderBlog® & News

Nearby

Air Quality

  Air Quality AQ Index Pollutant
Not available.

Snow Depth

Station Depth Elevation

Earthquake Activity

City Distance Mag. Time & Date
Minimum magnitude displayed is 2.5.

Coastal Water Temperatures

Place Temperature

Stations

Nearby Weather Stations

Station Location Temp. Windchill Dew Point Humidity Wind Precip. Elev Updated Type
                   

Watches & Warnings

There are currently no watches in effect.